createdAt,value
2017-09-23T00:01:00.731Z,89.40
2017-09-23T00:03:31.807Z,89.30
2017-09-23T00:06:02.466Z,89.30
2017-09-23T00:08:33.034Z,90.00
2017-09-23T00:11:02.995Z,88.90
2017-09-23T00:13:33.229Z,88.50
2017-09-23T00:16:03.205Z,88.50
2017-09-23T00:18:34.925Z,88.20
2017-09-23T00:21:05.098Z,88.50
2017-09-23T00:23:35.773Z,88.10
2017-09-23T00:26:06.029Z,88.10
2017-09-23T00:28:35.976Z,88.20
2017-09-23T00:31:05.993Z,87.80
2017-09-23T00:33:35.970Z,88.00
2017-09-23T00:36:06.018Z,87.50
2017-09-23T00:38:36.468Z,87.60
2017-09-23T00:41:07.001Z,87.90
2017-09-23T00:43:37.136Z,87.90
2017-09-23T00:46:07.145Z,88.00
2017-09-23T00:48:37.128Z,87.90
2017-09-23T00:51:08.232Z,88.00
2017-09-23T00:53:38.864Z,88.50
2017-09-23T00:56:08.920Z,88.60
2017-09-23T00:58:39.389Z,88.10
2017-09-23T01:07:56.661Z,87.80
2017-09-23T01:10:26.698Z,87.80
2017-09-23T01:12:57.190Z,87.60
2017-09-23T01:15:27.845Z,88.00
2017-09-23T01:17:58.231Z,90.10
2017-09-23T01:20:28.326Z,90.80
2017-09-23T01:22:58.890Z,90.90
2017-09-23T01:25:29.408Z,90.60
2017-09-23T01:28:00.773Z,90.20
2017-09-23T01:30:31.064Z,90.20
2017-09-23T01:33:01.725Z,89.90
2017-09-23T01:35:32.736Z,89.80
2017-09-23T01:38:02.906Z,89.80
2017-09-23T01:40:33.618Z,89.60
2017-09-23T01:43:04.462Z,89.20
2017-09-23T01:45:34.978Z,88.80
2017-09-23T01:48:05.684Z,88.90
2017-09-23T01:50:36.030Z,88.80
2017-09-23T01:53:06.325Z,89.00
2017-09-23T01:55:36.448Z,88.90
2017-09-23T01:58:06.584Z,88.30
2017-09-23T02:00:37.179Z,88.40
2017-09-23T02:03:08.025Z,88.30
2017-09-23T02:05:38.515Z,90.10
2017-09-23T02:08:08.926Z,89.80
2017-09-23T02:10:39.765Z,89.90
2017-09-23T02:13:09.858Z,90.00
2017-09-23T02:15:40.242Z,90.20
2017-09-23T02:18:11.359Z,90.30
2017-09-23T02:20:43.254Z,90.30
2017-09-23T02:23:14.267Z,90.30
2017-09-23T02:25:44.723Z,90.30
2017-09-23T02:28:15.853Z,91.00
2017-09-23T02:30:46.981Z,90.70
2017-09-23T02:33:17.253Z,90.60
2017-09-23T02:35:47.533Z,91.00
2017-09-23T02:38:17.967Z,91.30
2017-09-23T02:40:49.585Z,90.70
2017-09-23T02:43:19.773Z,90.60
2017-09-23T02:45:50.116Z,90.90
2017-09-23T02:48:20.609Z,91.20
2017-09-23T02:50:50.995Z,91.60
2017-09-23T02:53:21.444Z,91.30
2017-09-23T02:55:52.312Z,91.00
2017-09-23T02:58:22.917Z,91.60
2017-09-23T03:00:53.297Z,91.60
2017-09-23T03:03:23.594Z,91.90
2017-09-23T03:05:54.093Z,91.70
2017-09-23T03:08:24.994Z,91.90
2017-09-23T03:10:55.346Z,91.90
2017-09-23T03:13:26.123Z,92.40
2017-09-23T03:15:56.464Z,92.00
2017-09-23T03:18:26.708Z,92.00
2017-09-23T03:20:56.787Z,91.60
2017-09-23T03:23:27.148Z,91.90
2017-09-23T03:25:57.493Z,92.00
2017-09-23T03:28:27.928Z,92.20
2017-09-23T03:30:58.029Z,92.20
2017-09-23T03:33:28.400Z,92.10
2017-09-23T03:35:58.680Z,92.20
2017-09-23T03:38:29.260Z,92.30
2017-09-23T03:40:59.613Z,92.20
2017-09-23T03:43:29.829Z,92.00
2017-09-23T03:46:00.210Z,91.90
2017-09-23T03:48:32.002Z,92.20
2017-09-23T03:51:03.240Z,92.20
2017-09-23T03:53:33.566Z,92.20
2017-09-23T03:56:03.727Z,92.40
2017-09-23T03:58:34.465Z,92.10
2017-09-23T04:01:04.754Z,92.60
2017-09-23T04:03:35.000Z,92.40
2017-09-23T04:06:05.823Z,92.40
2017-09-23T04:08:36.578Z,92.30
2017-09-23T04:11:07.186Z,92.70
2017-09-23T04:13:37.646Z,92.70
2017-09-23T04:16:08.047Z,92.90
2017-09-23T04:18:39.563Z,92.50
2017-09-23T04:21:10.009Z,92.50
2017-09-23T04:23:40.451Z,92.40
2017-09-23T04:26:11.040Z,92.50
2017-09-23T04:28:41.198Z,92.40
2017-09-23T04:31:11.654Z,92.70
2017-09-23T04:33:42.273Z,92.70
2017-09-23T04:36:13.198Z,92.50
2017-09-23T04:38:43.314Z,92.50
2017-09-23T04:41:13.854Z,93.00
2017-09-23T04:43:44.086Z,92.70
2017-09-23T04:46:14.650Z,92.90
2017-09-23T04:48:45.252Z,92.60
2017-09-23T04:51:16.108Z,92.50
2017-09-23T04:53:46.446Z,92.50
2017-09-23T04:56:18.199Z,92.80
2017-09-23T04:58:48.549Z,92.40
2017-09-23T05:01:18.851Z,92.90
2017-09-23T05:03:49.250Z,92.80
2017-09-23T05:06:20.798Z,93.40
2017-09-23T05:08:51.830Z,93.30
2017-09-23T05:11:21.895Z,93.30
2017-09-23T05:13:52.327Z,93.50
2017-09-23T05:16:22.722Z,93.70
2017-09-23T05:18:54.243Z,93.60
2017-09-23T05:21:24.385Z,93.60
2017-09-23T05:23:54.982Z,93.60
2017-09-23T05:26:25.919Z,93.40
2017-09-23T05:28:56.762Z,93.20
2017-09-23T05:31:27.048Z,93.20
2017-09-23T05:33:57.200Z,93.50
2017-09-23T05:36:27.937Z,93.30
2017-09-23T05:38:58.783Z,93.10
2017-09-23T05:41:29.133Z,93.20
2017-09-23T05:44:00.395Z,93.00
2017-09-23T05:46:31.009Z,93.00
2017-09-23T05:49:01.822Z,93.20
2017-09-23T05:51:32.173Z,93.00
2017-09-23T05:54:03.374Z,93.10
2017-09-23T05:56:33.694Z,93.10
2017-09-23T05:59:04.401Z,93.00
2017-09-23T06:01:34.483Z,93.60
2017-09-23T06:04:05.110Z,93.20
2017-09-23T06:06:35.496Z,93.20
2017-09-23T06:09:06.214Z,93.50
2017-09-23T06:11:36.578Z,93.30
2017-09-23T06:14:09.679Z,93.10
2017-09-23T06:16:48.879Z,93.30
2017-09-23T06:19:28.200Z,93.20
2017-09-23T06:21:58.655Z,93.50
2017-09-23T06:24:30.115Z,93.30
2017-09-23T06:27:01.206Z,93.20
2017-09-23T06:29:31.682Z,93.20
2017-09-23T06:32:02.518Z,93.30
2017-09-23T06:34:33.803Z,93.30
2017-09-23T06:37:04.455Z,93.20
2017-09-23T06:39:35.277Z,93.20
2017-09-23T06:42:05.724Z,93.20
2017-09-23T06:44:35.956Z,93.00
2017-09-23T06:47:06.338Z,92.90
2017-09-23T06:49:37.595Z,93.10
2017-09-23T06:52:07.964Z,93.10
2017-09-23T06:54:39.365Z,92.80
2017-09-23T06:57:09.724Z,92.80
2017-09-23T06:59:40.902Z,92.90
2017-09-23T07:02:11.319Z,92.90
2017-09-23T07:04:42.163Z,92.80
2017-09-23T07:07:13.298Z,92.70
2017-09-23T07:09:44.461Z,92.90
2017-09-23T07:12:15.008Z,92.90
2017-09-23T07:14:45.408Z,93.00
2017-09-23T07:17:15.934Z,92.80
2017-09-23T07:19:47.344Z,92.80
2017-09-23T07:22:19.075Z,92.80
2017-09-23T07:24:49.611Z,92.70
2017-09-23T07:27:20.117Z,92.40
2017-09-23T07:29:51.056Z,91.90
2017-09-23T07:32:21.388Z,91.90
2017-09-23T07:34:51.895Z,92.10
2017-09-23T07:37:23.327Z,92.00
2017-09-23T07:39:54.712Z,92.10
2017-09-23T07:42:25.362Z,92.10
2017-09-23T07:44:55.922Z,92.00
2017-09-23T07:47:27.775Z,92.30
2017-09-23T07:49:58.139Z,92.30
2017-09-23T07:52:28.569Z,92.20
2017-09-23T07:54:59.724Z,92.10
2017-09-23T07:57:30.455Z,92.10
2017-09-23T08:00:01.049Z,92.20
2017-09-23T08:02:31.673Z,92.30
2017-09-23T08:05:02.451Z,92.30
2017-09-23T08:07:32.983Z,92.10
2017-09-23T08:10:03.384Z,92.30
2017-09-23T08:12:34.906Z,92.30
2017-09-23T08:15:05.418Z,92.30
2017-09-23T08:17:35.952Z,92.00
2017-09-23T08:20:06.833Z,92.00
2017-09-23T08:22:38.146Z,91.80
2017-09-23T08:27:40.914Z,91.80
2017-09-23T08:30:12.066Z,91.80
2017-09-23T08:32:42.753Z,91.80
2017-09-23T08:35:13.591Z,92.00
2017-09-23T08:37:45.046Z,91.50
2017-09-23T08:40:16.901Z,91.30
2017-09-23T08:42:48.340Z,91.50
2017-09-23T08:45:20.107Z,91.50
2017-09-23T08:47:51.331Z,91.30
2017-09-23T08:50:22.039Z,91.30
2017-09-23T08:52:53.162Z,91.10
2017-09-23T08:55:23.526Z,90.90
2017-09-23T08:57:54.646Z,90.60
2017-09-23T09:00:25.095Z,90.40
2017-09-23T09:02:55.975Z,90.50
2017-09-23T09:05:26.522Z,91.10
2017-09-23T09:07:57.381Z,91.20
2017-09-23T09:10:27.756Z,91.30
2017-09-23T09:12:58.137Z,91.30
2017-09-23T09:15:28.637Z,91.30
2017-09-23T09:17:59.370Z,91.20
2017-09-23T09:20:29.726Z,91.30
2017-09-23T09:23:00.096Z,91.30
2017-09-23T09:25:31.567Z,91.10
2017-09-23T09:28:01.954Z,91.20
2017-09-23T09:30:33.203Z,91.10
2017-09-23T09:33:04.801Z,90.90
2017-09-23T09:35:35.649Z,90.90
2017-09-23T09:38:06.388Z,91.20
2017-09-23T09:40:36.805Z,91.00
2017-09-23T09:43:07.604Z,91.30
2017-09-23T09:45:38.570Z,90.80
2017-09-23T09:48:09.011Z,90.50
2017-09-23T09:50:39.376Z,90.40
2017-09-23T09:53:10.901Z,90.60
2017-09-23T09:55:41.584Z,90.60
2017-09-23T09:58:12.114Z,90.70
2017-09-23T10:00:43.209Z,90.00
2017-09-23T10:03:14.949Z,88.20
2017-09-23T10:05:45.389Z,87.60
2017-09-23T10:08:16.298Z,88.60
2017-09-23T10:10:46.768Z,88.00
2017-09-23T10:13:18.555Z,87.60
2017-09-23T10:15:49.173Z,87.60
2017-09-23T10:18:20.416Z,87.70
2017-09-23T10:20:50.848Z,87.70
2017-09-23T10:23:21.986Z,88.00
2017-09-23T10:25:53.401Z,85.60
2017-09-23T10:28:23.896Z,85.60
2017-09-23T10:30:54.376Z,85.50
2017-09-23T10:33:24.956Z,86.10
2017-09-23T10:35:55.765Z,84.10
2017-09-23T10:38:27.060Z,81.80
2017-09-23T10:40:57.541Z,81.90
2017-09-23T10:43:28.101Z,83.70
2017-09-23T10:45:59.119Z,85.50
2017-09-23T10:48:29.628Z,84.60
2017-09-23T10:51:01.284Z,84.90
2017-09-23T10:53:33.036Z,83.00
2017-09-23T10:56:04.322Z,81.70
2017-09-23T10:58:34.820Z,81.70
2017-09-23T11:01:06.613Z,80.90
2017-09-23T11:03:37.308Z,81.60
2017-09-23T11:06:08.458Z,79.80
2017-09-23T11:08:38.991Z,79.80
2017-09-23T11:11:09.415Z,80.50
2017-09-23T11:13:39.929Z,80.10
2017-09-23T11:16:11.124Z,80.90
2017-09-23T11:18:41.567Z,80.90
2017-09-23T11:21:13.207Z,80.50
2017-09-23T11:23:43.733Z,79.00
2017-09-23T11:26:16.271Z,79.30
2017-09-23T11:28:52.372Z,77.70
2017-09-23T11:31:23.783Z,79.90
2017-09-23T11:34:01.083Z,77.20
2017-09-23T11:36:33.161Z,76.60
2017-09-23T11:39:12.054Z,74.20
2017-09-23T11:41:47.968Z,69.50
2017-09-23T11:44:18.901Z,69.40
2017-09-23T11:46:49.505Z,70.60
2017-09-23T11:49:20.228Z,69.40
2017-09-23T11:51:50.705Z,71.00
2017-09-23T11:54:21.165Z,67.40
2017-09-23T11:56:56.300Z,63.80
2017-09-23T11:59:27.464Z,64.50
2017-09-23T12:01:58.308Z,64.50
2017-09-23T12:04:28.813Z,64.80
2017-09-23T12:06:59.339Z,64.60
2017-09-23T12:09:30.199Z,59.60
2017-09-23T12:12:00.590Z,66.20
2017-09-23T12:14:32.297Z,63.70
2017-09-23T12:17:02.953Z,63.60
2017-09-23T12:19:33.756Z,63.90
2017-09-23T12:22:10.534Z,58.90
2017-09-23T12:24:42.056Z,61.50
2017-09-23T12:27:13.510Z,57.90
2017-09-23T12:29:44.342Z,57.70
2017-09-23T12:32:15.656Z,61.70
2017-09-23T12:34:47.596Z,62.20
2017-09-23T12:37:19.407Z,62.30
2017-09-23T12:39:51.133Z,59.40
2017-09-23T12:42:21.792Z,62.70
2017-09-23T12:44:52.575Z,62.10
2017-09-23T12:47:24.794Z,59.30
2017-09-23T12:49:57.294Z,57.90
2017-09-23T12:52:32.252Z,57.70
2017-09-23T12:55:02.845Z,57.70
2017-09-23T12:57:36.186Z,56.80
2017-09-23T13:00:06.893Z,57.60
2017-09-23T13:02:37.988Z,57.40
2017-09-23T13:05:08.911Z,56.70
2017-09-23T13:07:39.356Z,59.60
2017-09-23T13:10:09.760Z,60.10
2017-09-23T13:12:40.348Z,60.70
2017-09-23T13:15:10.947Z,58.30
2017-09-23T13:17:42.532Z,59.80
2017-09-23T13:20:13.672Z,59.50
2017-09-23T13:22:44.264Z,59.80
2017-09-23T13:25:16.829Z,60.90
2017-09-23T13:27:47.249Z,61.20
2017-09-23T13:30:17.673Z,62.20
2017-09-23T13:32:48.254Z,59.00
2017-09-23T13:35:20.801Z,62.20
2017-09-23T13:37:52.018Z,62.80
2017-09-23T13:40:22.880Z,62.00
2017-09-23T13:42:53.456Z,62.20
2017-09-23T13:45:24.138Z,64.80
2017-09-23T13:47:54.874Z,62.90
2017-09-23T13:50:37.892Z,63.90
2017-09-23T13:53:19.603Z,63.20
2017-09-23T13:55:59.911Z,61.00
2017-09-23T13:58:42.512Z,62.10
2017-09-23T14:01:22.408Z,59.20
2017-09-23T14:04:01.091Z,59.30
2017-09-23T14:06:38.091Z,59.40
2017-09-23T14:09:16.490Z,58.30
2017-09-23T14:11:53.626Z,58.30
2017-09-23T14:14:35.223Z,60.60
2017-09-23T14:17:27.427Z,61.50
2017-09-23T14:20:07.612Z,61.30
2017-09-23T14:22:48.425Z,63.40
2017-09-23T14:25:20.015Z,57.90
2017-09-23T14:27:51.948Z,60.20
2017-09-23T14:30:22.604Z,60.20
2017-09-23T14:32:54.048Z,61.20
2017-09-23T14:35:26.073Z,61.20
2017-09-23T14:37:58.259Z,61.30
2017-09-23T14:40:28.950Z,60.20
2017-09-23T14:42:59.577Z,60.40
2017-09-23T14:45:31.765Z,61.60
2017-09-23T14:48:03.338Z,60.90
2017-09-23T14:50:34.907Z,59.80
2017-09-23T14:53:06.558Z,60.30
2017-09-23T14:55:37.051Z,59.00
2017-09-23T14:58:08.168Z,59.40
2017-09-23T15:00:39.664Z,60.70
2017-09-23T15:03:10.516Z,60.70
2017-09-23T15:05:45.559Z,59.70
2017-09-23T15:08:16.499Z,60.20
2017-09-23T15:10:47.507Z,59.90
2017-09-23T15:13:18.372Z,60.80
2017-09-23T15:15:49.066Z,57.70
2017-09-23T15:18:19.578Z,59.80
2017-09-23T15:20:50.709Z,60.10
2017-09-23T15:23:21.350Z,61.60
2017-09-23T15:25:52.010Z,62.70
2017-09-23T15:28:22.927Z,62.30
2017-09-23T15:30:54.308Z,62.40
2017-09-23T15:33:24.979Z,62.40
2017-09-23T15:35:56.269Z,62.90
2017-09-23T15:38:26.826Z,63.00
2017-09-23T15:40:57.850Z,63.70
2017-09-23T15:43:29.042Z,65.40
2017-09-23T15:45:59.791Z,64.30
2017-09-23T15:48:30.709Z,64.40
2017-09-23T15:51:01.511Z,63.90
2017-09-23T15:53:32.062Z,63.30
2017-09-23T15:56:02.538Z,64.20
2017-09-23T15:58:33.308Z,64.30
2017-09-23T16:01:06.731Z,64.10
2017-09-23T16:03:38.163Z,65.60
2017-09-23T16:06:08.671Z,64.40
2017-09-23T16:08:39.784Z,65.00
2017-09-23T16:11:11.213Z,65.20
2017-09-23T16:13:41.829Z,64.50
2017-09-23T16:16:12.850Z,64.10
2017-09-23T16:21:08.852Z,65.80
2017-09-23T16:23:40.353Z,66.20
2017-09-23T16:26:11.245Z,66.30
2017-09-23T16:28:44.213Z,66.50
2017-09-23T16:31:16.074Z,67.00
2017-09-23T16:33:51.496Z,67.20
2017-09-23T16:36:25.856Z,67.40
2017-09-23T16:38:56.909Z,67.60
2017-09-23T16:41:27.617Z,68.00
2017-09-23T16:43:59.074Z,68.80
2017-09-23T16:46:29.555Z,68.80
2017-09-23T16:49:01.669Z,68.80
2017-09-23T16:51:33.105Z,68.70
2017-09-23T16:54:03.860Z,68.60
2017-09-23T16:56:34.581Z,69.20
2017-09-23T16:59:06.136Z,70.40
2017-09-23T17:01:36.729Z,70.30
2017-09-23T17:04:08.405Z,70.70
2017-09-23T17:06:39.580Z,71.00
2017-09-23T17:09:10.121Z,71.00
2017-09-23T17:11:40.704Z,71.50
2017-09-23T17:14:11.807Z,72.10
2017-09-23T17:16:42.649Z,72.20
2017-09-23T17:19:13.574Z,72.70
2017-09-23T17:21:44.204Z,72.60
2017-09-23T17:24:15.172Z,72.50
2017-09-23T17:26:45.838Z,73.00
2017-09-23T17:29:17.568Z,73.90
2017-09-23T17:31:48.137Z,73.90
2017-09-23T17:34:18.564Z,73.80
2017-09-23T17:36:49.315Z,73.80
2017-09-23T17:39:20.423Z,74.60
2017-09-23T17:41:52.845Z,74.00
2017-09-23T17:44:23.439Z,74.00
2017-09-23T17:46:54.161Z,74.40
2017-09-23T17:49:26.727Z,75.40
2017-09-23T17:51:58.013Z,75.70
2017-09-23T17:54:28.567Z,75.70
2017-09-23T17:56:58.980Z,76.10
2017-09-23T17:59:29.492Z,76.50
2017-09-23T18:02:00.720Z,76.70
2017-09-23T18:04:31.152Z,77.00
2017-09-23T18:07:01.864Z,76.90
2017-09-23T18:09:32.485Z,77.20
2017-09-23T18:12:03.111Z,77.90
2017-09-23T18:14:34.649Z,77.30
2017-09-23T18:17:05.221Z,77.70
2017-09-23T18:19:36.505Z,78.00
2017-09-23T18:22:07.042Z,78.00
2017-09-23T18:24:37.920Z,78.00
2017-09-23T18:27:09.378Z,78.00
2017-09-23T18:29:40.724Z,78.40
2017-09-23T18:32:12.022Z,78.40
2017-09-23T18:34:42.713Z,78.30
2017-09-23T18:37:13.299Z,78.40
2017-09-23T18:39:44.498Z,78.90
2017-09-23T18:42:15.136Z,78.50
2017-09-23T18:44:45.720Z,78.60
2017-09-23T18:47:16.291Z,79.10
2017-09-23T18:49:46.896Z,79.30
2017-09-23T18:52:17.724Z,79.10
2017-09-23T18:54:49.902Z,79.00
2017-09-23T18:57:20.536Z,80.20
2017-09-23T18:59:51.219Z,79.90
2017-09-23T19:02:22.083Z,80.00
2017-09-23T19:04:54.196Z,79.90
2017-09-23T19:07:25.934Z,79.70
2017-09-23T19:09:57.459Z,80.10
2017-09-23T19:12:29.329Z,80.20
2017-09-23T19:15:00.166Z,80.20
2017-09-23T19:17:30.972Z,80.20
2017-09-23T19:20:01.606Z,80.20
2017-09-23T19:22:32.432Z,79.90
2017-09-23T19:25:04.130Z,79.20
2017-09-23T19:27:36.122Z,79.30
2017-09-23T19:30:06.548Z,79.20
2017-09-23T19:32:36.976Z,79.70
2017-09-23T19:35:08.573Z,80.30
2017-09-23T19:37:39.372Z,80.30
2017-09-23T19:40:09.785Z,80.20
2017-09-23T19:42:41.309Z,80.10
2017-09-23T19:45:13.178Z,79.90
2017-09-23T19:47:44.016Z,79.80
2017-09-23T19:50:15.731Z,79.80
2017-09-23T19:52:46.169Z,79.70
2017-09-23T19:55:17.180Z,80.00
2017-09-23T19:57:48.592Z,80.10
2017-09-23T20:00:19.950Z,80.10
2017-09-23T20:02:52.405Z,79.90
2017-09-23T20:05:23.468Z,79.90
2017-09-23T20:07:54.071Z,79.90
2017-09-23T20:10:24.760Z,79.80
2017-09-23T20:13:01.080Z,79.60
2017-09-23T20:15:39.638Z,79.60
2017-09-23T20:18:11.350Z,79.60
2017-09-23T20:20:43.198Z,81.30
2017-09-23T20:23:14.307Z,80.60
2017-09-23T20:25:44.495Z,81.50
2017-09-23T20:28:15.757Z,80.70
2017-09-23T20:30:46.508Z,80.70
2017-09-23T20:35:40.575Z,81.40
2017-09-23T20:38:10.854Z,82.00
2017-09-23T20:40:41.541Z,82.10
2017-09-23T20:43:12.194Z,82.20
2017-09-23T20:45:42.499Z,82.80
2017-09-23T20:48:13.046Z,83.00
2017-09-23T20:50:43.477Z,83.30
2017-09-23T20:53:13.753Z,83.10
2017-09-23T20:55:45.078Z,82.90
2017-09-23T20:58:15.337Z,82.90
2017-09-23T21:00:45.857Z,83.90
2017-09-23T21:03:16.099Z,83.40
2017-09-23T21:05:46.310Z,83.50
2017-09-23T21:08:16.818Z,83.60
2017-09-23T21:10:48.061Z,83.80
2017-09-23T21:13:19.260Z,83.40
2017-09-23T21:15:49.858Z,83.40
2017-09-23T21:18:20.230Z,83.30
2017-09-23T21:20:50.665Z,83.30
2017-09-23T21:23:20.981Z,83.30
2017-09-23T21:25:51.238Z,83.90
2017-09-23T21:28:22.297Z,83.60
2017-09-23T21:30:52.466Z,83.50
2017-09-23T21:33:23.400Z,83.50
2017-09-23T21:35:53.706Z,84.10
2017-09-23T21:38:24.666Z,84.50
2017-09-23T21:40:54.933Z,85.70
2017-09-23T21:43:25.140Z,85.00
2017-09-23T21:45:56.120Z,83.60
2017-09-23T21:48:27.813Z,83.60
2017-09-23T21:50:58.170Z,83.90
2017-09-23T21:53:29.323Z,84.30
2017-09-23T21:55:59.604Z,84.20
2017-09-23T21:58:29.795Z,84.60
2017-09-23T22:01:00.079Z,84.60
2017-09-23T22:03:30.299Z,84.50
2017-09-23T22:06:01.730Z,84.30
2017-09-23T22:08:31.921Z,84.30
2017-09-23T22:11:02.079Z,84.10
2017-09-23T22:13:32.443Z,84.50
2017-09-23T22:16:02.835Z,84.40
2017-09-23T22:18:33.278Z,84.40
2017-09-23T22:21:04.694Z,84.70
2017-09-23T22:23:34.846Z,84.70
2017-09-23T22:26:05.981Z,84.30
2017-09-23T22:28:37.068Z,84.20
2017-09-23T22:31:07.695Z,84.20
2017-09-23T22:33:37.861Z,84.30
2017-09-23T22:36:08.064Z,84.60
2017-09-23T22:38:38.326Z,85.40
2017-09-23T22:41:08.647Z,85.40
2017-09-23T22:43:39.518Z,84.70
2017-09-23T22:46:10.130Z,84.70
2017-09-23T22:48:40.318Z,84.70
2017-09-23T22:51:10.762Z,84.80
2017-09-23T22:53:40.898Z,84.70
2017-09-23T22:56:11.003Z,84.50
2017-09-23T22:58:41.415Z,84.50
2017-09-23T23:01:11.914Z,84.50
2017-09-23T23:03:42.365Z,84.90
2017-09-23T23:06:12.498Z,85.00
2017-09-23T23:08:42.773Z,84.80
2017-09-23T23:11:14.839Z,85.10
2017-09-23T23:13:46.149Z,85.10
2017-09-23T23:16:16.776Z,85.10
2017-09-23T23:18:46.966Z,84.80
2017-09-23T23:21:17.201Z,84.60
2017-09-23T23:23:48.224Z,84.50
2017-09-23T23:26:19.202Z,84.40
2017-09-23T23:28:49.713Z,84.40
2017-09-23T23:31:21.059Z,84.40
2017-09-23T23:33:52.090Z,84.40
2017-09-23T23:36:23.326Z,84.40
2017-09-23T23:38:54.270Z,84.30
2017-09-23T23:41:25.592Z,84.40
2017-09-23T23:43:56.100Z,84.40
2017-09-23T23:46:26.777Z,84.40
2017-09-23T23:48:57.721Z,84.40
2017-09-23T23:51:28.746Z,84.40
2017-09-23T23:53:59.790Z,84.30
2017-09-23T23:56:30.729Z,84.30
2017-09-23T23:59:02.871Z,84.50
